Time;durP1;ratioP1;P1;durP2;ratioP2;P2;SDS_P1;SDS_P2;PMS_P1;PMS_P2;Temp;Humidity;BMP_temperature;BMP_pressure;BME280_temperature;BME280_humidity;BME280_pressure;Samples;Min_cycle;Max_cycle;Signal;HPM_P1;HPM_P2
2021/05/24 00:01:50;;;;;;;0.93;0.93;;;9.30;68.10;;;8.49;53.22;95300.06;5124920;28;20232;-80
2021/05/24 00:04:18;;;;;;;0.82;0.82;;;9.30;68.50;;;8.47;53.34;95297.63;5103652;27;20216;-81
2021/05/24 00:06:44;;;;;;;1.30;1.00;;;9.20;68.50;;;8.49;54.14;95289.63;5110895;28;20200;-79
2021/05/24 00:09:11;;;;;;;1.10;0.90;;;9.20;68.80;;;8.58;55.19;95279.94;5013620;28;20275;-80
2021/05/24 00:11:38;;;;;;;0.80;0.80;;;9.20;69.20;;;8.66;55.68;95277.28;4921741;28;20274;-79
2021/05/24 00:14:07;;;;;;;0.90;0.90;;;9.30;70.00;;;8.76;54.95;95280.53;4806017;29;20231;-78
2021/05/24 00:16:33;;;;;;;1.10;1.00;;;9.20;69.90;;;8.85;54.65;95277.84;4682010;30;20223;-80
2021/05/24 00:20:37;;;;;;;0.90;0.90;;;9.30;69.80;;;8.85;53.28;95277.84;5150492;27;20627;-80
2021/05/24 00:23:05;;;;;;;1.77;1.10;;;9.40;69.60;;;8.86;53.62;95282.94;5085323;28;20222;-79
2021/05/24 00:25:32;;;;;;;1.00;0.90;;;9.40;69.30;;;8.81;53.10;95278.19;5032002;28;20212;-79
2021/05/24 00:28:00;;;;;;;1.67;1.15;;;9.40;69.10;;;8.80;53.01;95283.59;5027749;28;20232;-79
2021/05/24 00:30:32;;;;;;;1.45;1.10;;;9.40;69.00;;;8.73;52.94;95293.94;5045310;28;20223;-80
2021/05/24 00:33:03;;;;;;;1.08;1.02;;;9.30;69.00;;;8.69;53.18;95289.22;5007425;28;20221;-82
2021/05/24 00:35:31;;;;;;;1.20;1.10;;;9.50;70.50;;;8.60;53.08;95278.78;4895092;28;20227;-82
2021/05/24 00:37:59;;;;;;;0.80;0.80;;;9.30;69.00;;;8.57;53.09;95279.13;4593777;30;20285;-81
2021/05/24 00:42:14;;;;;;;0.80;0.80;;;9.40;69.00;;;8.48;53.09;95282.75;5150412;27;20609;-80
2021/05/24 00:44:41;;;;;;;0.90;0.90;;;9.20;68.60;;;8.43;52.82;95287.66;5083488;28;20201;-79
2021/05/24 00:47:08;;;;;;;0.90;0.90;;;9.20;68.60;;;8.38;52.97;95280.31;5111186;28;20300;-80
2021/05/24 00:49:35;;;;;;;1.25;1.20;;;9.10;68.70;;;8.31;52.70;95256.66;5103662;28;20213;-79
2021/05/24 00:52:02;;;;;;;1.00;1.00;;;9.10;68.80;;;8.26;53.30;95264.16;5035093;28;20571;-79
2021/05/24 00:54:29;;;;;;;0.90;0.90;;;9.00;68.80;;;8.24;53.35;95273.16;4995954;28;20227;-79
2021/05/24 00:56:59;;;;;;;0.85;0.85;;;9.00;68.80;;;8.18;53.21;95270.25;4943989;28;20214;-79
2021/05/24 00:59:26;;;;;;;0.93;0.90;;;8.90;69.20;;;8.14;53.19;95257.69;4805705;29;20327;-79
2021/05/24 01:04:26;;;;;;;0.82;0.82;;;8.90;69.00;;;8.13;53.30;95276.94;5130975;27;20430;-79
2021/05/24 01:06:55;;;;;;;1.95;0.90;;;8.80;69.20;;;8.08;53.40;95258.34;5102658;28;20216;-80
2021/05/24 01:09:23;;;;;;;0.88;0.88;;;8.80;69.50;;;8.07;53.87;95267.16;5063476;28;20233;-80
2021/05/24 01:11:51;;;;;;;0.80;0.80;;;8.80;69.40;;;8.06;53.37;95257.72;5038147;28;20765;-79
2021/05/24 01:14:19;;;;;;;0.88;0.88;;;8.70;69.40;;;8.02;53.51;95263.28;4980200;28;20232;-79
2021/05/24 01:16:50;;;;;;;0.80;0.80;;;8.70;69.40;;;8.01;53.90;95259.03;4954214;28;20696;-79
2021/05/24 01:19:17;;;;;;;1.25;1.05;;;8.70;69.60;;;7.99;53.58;95260.19;4838355;29;20239;-79
2021/05/24 01:21:44;;;;;;;0.80;0.73;;;8.70;69.50;;;7.98;53.30;95261.97;4754023;29;20219;-80
2021/05/24 01:26:08;;;;;;;1.20;0.93;;;8.70;69.50;;;7.94;53.64;95260.66;5150582;27;21138;-80
2021/05/24 01:28:35;;;;;;;1.08;1.02;;;8.70;69.40;;;7.95;53.59;95262.31;5100275;28;20217;-79
2021/05/24 01:31:04;;;;;;;1.00;0.90;;;8.60;69.50;;;7.93;53.65;95253.81;5073049;28;20223;-80
2021/05/24 01:33:33;;;;;;;1.52;0.82;;;8.60;69.70;;;7.95;53.57;95248.44;5051578;28;20698;-79
2021/05/24 01:36:02;;;;;;;0.90;0.90;;;8.60;69.70;;;7.95;53.91;95251.84;5034867;28;20449;-81
2021/05/24 01:38:33;;;;;;;0.90;0.90;;;8.60;69.60;;;7.93;53.81;95248.59;5064622;28;20620;-79
2021/05/24 01:41:00;;;;;;;0.70;0.70;;;8.60;69.80;;;7.91;53.59;95247.13;4940643;28;20204;-79
2021/05/24 01:43:28;;;;;;;0.85;0.85;;;8.70;69.70;;;7.87;53.56;95245.84;4863843;28;20232;-83
2021/05/24 01:47:50;;;;;;;0.90;0.90;;;8.60;69.80;;;8.16;56.19;95238.22;5138188;27;20504;-80
2021/05/24 01:50:17;;;;;;;0.90;0.90;;;8.40;72.40;;;8.02;55.31;95231.94;5091173;28;20203;-79
2021/05/24 01:52:44;;;;;;;1.08;0.90;;;8.50;71.60;;;7.95;55.05;95236.19;5050913;28;20740;-80
2021/05/24 01:55:12;;;;;;;0.98;0.90;;;8.50;71.20;;;7.95;54.73;95245.84;5025105;28;20232;-79
2021/05/24 01:57:39;;;;;;;1.05;0.90;;;8.40;70.90;;;7.91;54.60;95234.91;4969033;28;20226;-79
2021/05/24 02:00:12;;;;;;;1.48;0.90;;;8.50;70.90;;;7.88;54.64;95234.41;4929839;29;20226;-79
2021/05/24 02:02:44;;;;;;;1.75;0.80;;;8.50;70.90;;;7.83;54.43;95233.09;4848534;29;20244;-80
2021/05/24 02:05:13;;;;;;;0.90;0.90;;;8.50;70.50;;;7.79;54.10;95237.03;4723433;29;20222;-79
2021/05/24 02:09:44;;;;;;;1.02;1.00;;;8.50;70.30;;;7.66;54.08;95231.50;5150447;27;20653;-80
2021/05/24 02:12:11;;;;;;;0.80;0.80;;;8.40;70.00;;;7.61;53.96;95231.19;5094634;27;20204;-79
2021/05/24 02:14:43;;;;;;;1.00;0.90;;;8.40;71.00;;;7.57;54.41;95237.72;5065890;28;20213;-79
2021/05/24 02:17:09;;;;;;;1.33;1.00;;;8.30;70.10;;;7.52;54.21;95231.19;5074783;28;20673;-80
2021/05/24 02:19:36;;;;;;;1.00;1.00;;;8.30;70.20;;;7.49;54.38;95228.09;5068978;28;20595;-79
2021/05/24 02:22:03;;;;;;;0.90;0.90;;;8.30;70.30;;;7.47;54.20;95240.50;5005072;28;20218;-78
2021/05/24 02:24:30;;;;;;;1.00;1.00;;;8.20;70.30;;;7.43;54.15;95247.03;4824969;29;20234;-80
2021/05/24 02:26:56;;;;;;;1.27;1.17;;;8.20;70.40;;;7.40;54.46;95240.34;4713025;29;20570;-80
2021/05/24 02:31:57;;;;;;;0.90;0.90;;;8.10;70.40;;;7.33;54.98;95231.53;5149399;27;20570;-81
2021/05/24 02:34:24;;;;;;;1.00;1.00;;;8.10;70.50;;;7.28;55.02;95231.22;5106179;28;20221;-81
2021/05/24 02:36:50;;;;;;;1.50;1.27;;;8.00;70.50;;;7.24;55.44;95241.16;5071712;28;20266;-79
2021/05/24 02:39:17;;;;;;;1.77;1.30;;;8.00;70.70;;;7.25;55.46;95247.19;5077662;28;20227;-80
2021/05/24 02:41:43;;;;;;;1.17;1.10;;;8.00;70.90;;;7.24;55.19;95243.78;5036621;28;20702;-80
2021/05/24 02:44:11;;;;;;;1.52;1.10;;;8.00;71.00;;;7.22;55.24;95233.47;4998613;28;20709;-79
2021/05/24 02:46:38;;;;;;;1.30;1.20;;;7.90;71.00;;;7.21;55.06;95228.44;4922638;28;20613;-79
2021/05/24 02:49:05;;;;;;;1.30;1.20;;;7.90;70.90;;;7.25;54.99;95231.53;4843550;29;20312;-78
2021/05/24 02:54:09;;;;;;;2.35;1.23;;;7.90;70.90;;;7.26;55.22;95225.34;5133512;27;20657;-79
2021/05/24 02:56:37;;;;;;;1.17;1.08;;;7.90;71.10;;;7.25;55.43;95228.94;5102016;28;20676;-79
2021/05/24 02:59:04;;;;;;;1.67;1.30;;;7.90;71.20;;;7.25;55.56;95211.50;5075412;28;20226;-80
2021/05/24 03:01:33;;;;;;;1.45;1.30;;;7.90;71.50;;;7.29;55.25;95204.97;5058345;28;20209;-79
2021/05/24 03:04:02;;;;;;;1.30;1.20;;;7.90;71.40;;;7.31;55.36;95216.06;5021277;28;20698;-79
2021/05/24 03:06:29;;;;;;;1.20;1.13;;;7.90;71.30;;;7.33;55.29;95210.66;4966011;28;20302;-81
2021/05/24 03:08:56;;;;;;;1.10;1.10;;;7.90;71.40;;;7.33;55.52;95211.47;4901863;29;20226;-80
2021/05/24 03:11:24;;;;;;;2.30;1.35;;;7.90;71.40;;;7.33;55.21;95208.88;4730722;29;20235;-79
2021/05/24 03:16:20;;;;;;;4.07;1.33;;;8.00;71.50;;;7.34;55.61;95196.66;5150472;27;20719;-81
2021/05/24 03:18:46;;;;;;;2.00;1.20;;;7.90;71.50;;;7.34;55.53;95196.66;5104820;28;20226;-81
2021/05/24 03:21:13;;;;;;;1.40;1.25;;;7.90;71.40;;;7.32;55.12;95196.00;5072172;28;20571;-81
2021/05/24 03:23:40;;;;;;;1.70;1.60;;;7.90;71.40;;;7.31;55.27;95186.53;5055519;28;20219;-81
2021/05/24 03:26:06;;;;;;;1.55;1.45;;;7.90;71.40;;;7.30;55.47;95185.72;5003502;28;20216;-81
2021/05/24 03:28:33;;;;;;;1.70;1.60;;;7.90;71.50;;;7.31;55.37;95194.34;4968961;28;20311;-81
2021/05/24 03:30:59;;;;;;;2.72;1.70;;;7.90;71.50;;;7.27;55.60;95187.84;4918057;28;20311;-81
2021/05/24 03:33:26;;;;;;;1.92;1.70;;;7.90;71.50;;;7.32;55.13;95185.56;4799868;29;20239;-81
2021/05/24 03:38:02;;;;;;;1.70;1.60;;;8.00;71.60;;;7.28;55.24;95166.00;5143192;27;20660;-80
2021/05/24 03:40:29;;;;;;;3.75;1.58;;;8.00;71.30;;;7.29;55.26;95178.88;5089109;28;20204;-79
2021/05/24 03:42:55;;;;;;;1.45;1.35;;;7.90;71.40;;;7.31;55.14;95187.34;5052093;28;20235;-79
2021/05/24 03:45:26;;;;;;;2.03;1.65;;;7.90;71.40;;;7.33;55.30;95180.16;5053029;28;20211;-79
2021/05/24 03:47:53;;;;;;;1.60;1.50;;;7.90;71.70;;;7.33;55.30;95181.97;5001957;28;20238;-79
2021/05/24 03:50:21;;;;;;;2.10;1.77;;;7.90;71.70;;;7.36;55.45;95179.00;4924143;28;20516;-80
2021/05/24 03:52:47;;;;;;;1.75;1.65;;;8.00;71.90;;;7.37;55.73;95168.44;4817484;29;20225;-80
2021/05/24 03:55:17;;;;;;;1.55;1.45;;;8.00;71.80;;;7.41;55.47;95171.53;4730937;29;20228;-80
2021/05/24 04:00:15;;;;;;;1.77;1.63;;;8.00;72.10;;;7.51;55.41;95176.56;5147095;27;20340;-81
2021/05/24 04:02:43;;;;;;;1.77;1.50;;;8.00;72.20;;;7.52;55.88;95158.13;5097487;28;20234;-81
2021/05/24 04:05:17;;;;;;;1.50;1.40;;;8.10;72.20;;;7.63;55.67;95174.41;5108981;27;20616;-79
2021/05/24 04:07:50;;;;;;;1.83;1.42;;;8.10;72.50;;;7.69;55.42;95179.78;5051450;28;20223;-82
2021/05/24 04:10:19;;;;;;;1.63;1.52;;;8.10;72.30;;;7.77;55.62;95184.16;5001065;28;20217;-82
2021/05/24 04:12:45;;;;;;;1.63;1.50;;;8.20;72.50;;;7.81;55.78;95166.34;4954209;28;20223;-80
2021/05/24 04:15:14;;;;;;;1.60;1.50;;;8.30;72.50;;;7.86;55.80;95179.75;4878288;29;20218;-80
2021/05/24 04:17:43;;;;;;;1.75;1.65;;;8.30;72.60;;;7.94;55.81;95191.97;4635305;29;20330;-80
2021/05/24 04:20:22;;;;;;;1.58;1.48;;;8.30;72.50;;;8.01;55.59;95192.91;5149953;27;20307;-79
2021/05/24 04:22:49;;;;;;;1.48;1.38;;;8.40;72.70;;;8.12;56.00;95184.69;5100812;27;20212;-80
2021/05/24 04:25:16;;;;;;;1.50;1.40;;;8.40;72.70;;;8.21;55.94;95192.50;5115641;28;20231;-80
2021/05/24 04:27:43;;;;;;;2.72;1.48;;;8.50;72.80;;;8.28;55.93;95183.81;5090101;28;20245;-79
2021/05/24 04:30:14;;;;;;;1.60;1.50;;;8.60;72.90;;;8.39;56.18;95185.22;5079076;28;20746;-79
2021/05/24 04:32:40;;;;;;;2.85;2.20;;;8.60;73.20;;;8.48;56.05;95186.88;4986294;28;20231;-80
2021/05/24 04:35:09;;;;;;;7.40;6.80;;;8.70;73.00;;;8.59;56.03;95187.44;4892434;29;20206;-81
2021/05/24 04:37:36;;;;;;;4.95;4.25;;;8.80;73.20;;;8.69;55.70;95174.16;4764050;29;20599;-80
2021/05/24 04:42:05;;;;;;;5.63;3.88;;;8.90;73.00;;;8.80;55.84;95171.13;5147723;27;20568;-81
2021/05/24 04:44:32;;;;;;;4.97;4.50;;;9.00;72.90;;;8.93;56.01;95188.88;5080407;28;20249;-82
2021/05/24 04:46:59;;;;;;;5.63;5.13;;;9.20;73.10;;;9.01;56.19;95178.34;5116395;27;20261;-81
2021/05/24 04:49:26;;;;;;;5.03;4.53;;;9.20;73.10;;;9.09;56.04;95167.81;5070745;28;22291;-83
2021/05/24 04:51:52;;;;;;;4.93;3.75;;;9.30;73.10;;;9.17;55.97;95169.56;4983565;28;20266;-82
2021/05/24 04:54:19;;;;;;;3.15;2.85;;;9.40;73.20;;;9.26;56.11;95180.75;4943419;28;20260;-82
2021/05/24 04:56:45;;;;;;;2.88;2.60;;;9.50;73.20;;;9.34;55.96;95180.69;4859188;29;20205;-80
2021/05/24 04:59:12;;;;;;;2.83;2.40;;;9.50;73.10;;;9.42;55.98;95183.25;4820011;29;20248;-81
2021/05/24 05:03:43;;;;;;;2.33;2.00;;;9.60;73.20;;;9.57;56.01;95177.19;5137114;27;20664;-80
2021/05/24 05:06:10;;;;;;;3.38;2.47;;;9.80;73.10;;;9.68;55.91;95176.78;5066627;28;20201;-80
2021/05/24 05:08:37;;;;;;;6.82;6.25;;;9.80;73.10;;;9.76;56.06;95165.38;5078967;28;20231;-81
2021/05/24 05:11:04;;;;;;;4.28;3.97;;;9.90;73.10;;;9.83;55.74;95162.88;5067415;28;20222;-80
2021/05/24 05:13:30;;;;;;;3.53;3.22;;;10.00;71.80;;;9.92;55.64;95162.59;5003832;28;20240;-79
2021/05/24 05:15:57;;;;;;;3.47;3.17;;;10.10;71.90;;;9.99;55.95;95156.63;5011493;28;20213;-80
2021/05/24 05:18:24;;;;;;;3.50;2.70;;;10.10;71.70;;;10.04;55.89;95159.50;4943511;28;20686;-81
2021/05/24 05:20:50;;;;;;;2.70;2.50;;;10.20;71.80;;;10.10;55.99;95154.34;4844085;29;20267;-80
2021/05/24 05:24:54;;;;;;;2.35;2.15;;;10.30;71.80;;;10.23;55.69;95166.81;5150650;27;20633;-81
2021/05/24 05:27:21;;;;;;;2.90;2.70;;;10.40;71.80;;;10.31;55.80;95165.88;5089177;28;20265;-80
2021/05/24 05:29:48;;;;;;;2.72;2.17;;;10.50;71.90;;;10.38;56.09;95153.69;5086905;27;20263;-80
2021/05/24 05:32:14;;;;;;;2.15;1.95;;;10.50;71.80;;;10.42;55.80;95135.78;5096230;28;20208;-81
2021/05/24 05:34:41;;;;;;;2.53;1.90;;;10.60;71.70;;;10.47;55.82;95145.72;5017388;28;20202;-79
2021/05/24 05:37:07;;;;;;;2.20;2.00;;;10.70;71.80;;;10.53;55.81;95148.44;4876913;29;20226;-80
2021/05/24 05:39:34;;;;;;;2.25;2.00;;;10.70;71.70;;;10.59;55.64;95151.31;4758680;29;20241;-80
2021/05/24 05:42:00;;;;;;;3.15;2.85;;;10.80;71.70;;;10.64;55.92;95134.00;4650502;30;20223;-80
2021/05/24 05:46:36;;;;;;;2.78;2.47;;;10.80;71.70;;;10.75;56.07;95129.28;5150529;27;20964;-80
2021/05/24 05:49:03;;;;;;;3.33;2.60;;;10.90;71.70;;;10.83;55.94;95132.56;5115950;28;20276;-80
2021/05/24 05:51:30;;;;;;;4.35;3.20;;;11.00;71.90;;;10.90;55.83;95130.03;5074057;28;20221;-83
2021/05/24 05:53:56;;;;;;;7.57;3.92;;;11.10;72.10;;;11.04;55.89;95134.38;5073542;28;20315;-80
2021/05/24 05:56:24;;;;;;;11.15;5.55;;;11.20;72.20;;;11.20;55.97;95145.59;5030967;28;20207;-80
2021/05/24 05:58:51;;;;;;;8.20;4.68;;;11.20;72.30;;;11.34;55.89;95146.53;4920329;28;20229;-80
2021/05/24 06:01:17;;;;;;;5.97;5.28;;;11.30;72.20;;;11.49;55.96;95134.09;4789239;29;20556;-79
2021/05/24 06:03:44;;;;;;;7.50;5.85;;;11.40;72.20;;;11.60;55.81;95139.84;4685765;29;20246;-80
2021/05/24 06:08:03;;;;;;;6.97;4.93;;;11.60;72.30;;;11.82;55.72;95138.75;5127438;27;20581;-79
2021/05/24 06:10:31;;;;;;;4.38;3.70;;;11.70;72.30;;;11.95;55.73;95137.19;5081757;28;20242;-81
2021/05/24 06:12:59;;;;;;;5.53;4.15;;;11.80;72.30;;;12.11;55.60;95136.13;5077746;28;20237;-81
2021/05/24 06:15:25;;;;;;;3.60;2.92;;;12.00;72.30;;;12.22;55.62;95137.34;5061451;28;20244;-81
2021/05/24 06:17:52;;;;;;;3.67;2.70;;;12.10;72.10;;;12.34;55.18;95130.53;5028995;28;20237;-83
2021/05/24 06:20:19;;;;;;;3.35;2.30;;;12.20;72.10;;;12.43;55.34;95115.38;4856414;29;20284;-81
2021/05/24 06:22:46;;;;;;;3.13;2.00;;;12.40;72.20;;;12.59;55.29;95114.22;4769095;29;20233;-81
2021/05/24 06:25:14;;;;;;;2.53;2.20;;;12.50;72.20;;;12.75;55.45;95111.19;4629894;30;20286;-81
2021/05/24 06:27:52;;;;;;;2.25;2.05;;;12.50;72.20;;;12.94;55.30;95106.97;5139121;27;20319;-82
2021/05/24 06:30:19;;;;;;;2.30;2.10;;;12.70;72.40;;;13.17;55.22;95099.66;5087645;28;20215;-81
2021/05/24 06:32:45;;;;;;;1.73;1.60;;;12.80;72.40;;;13.31;55.15;95066.25;5060400;28;20225;-81
2021/05/24 06:35:12;;;;;;;1.83;1.52;;;13.00;72.20;;;13.52;54.42;95075.75;5020095;28;20300;-82
2021/05/24 06:37:39;;;;;;;2.58;1.60;;;13.20;72.00;;;13.70;54.22;95075.13;4988663;28;20270;-82
2021/05/24 06:40:07;;;;;;;2.10;1.40;;;13.40;71.80;;;13.84;53.91;95074.06;4881683;29;20211;-82
2021/05/24 06:42:33;;;;;;;2.58;1.80;;;13.50;71.40;;;14.00;53.60;95085.97;4789969;29;20254;-81
2021/05/24 06:45:00;;;;;;;2.20;1.38;;;13.80;71.30;;;14.16;53.54;95073.31;4621696;30;20315;-82
2021/05/24 06:49:19;;;;;;;1.52;1.42;;;13.80;71.10;;;14.38;53.26;95071.97;5131713;27;20561;-80
2021/05/24 06:51:47;;;;;;;1.60;1.50;;;14.10;70.90;;;14.54;52.97;95081.22;5087822;28;20703;-81
2021/05/24 06:54:14;;;;;;;1.25;1.15;;;14.20;70.80;;;14.66;52.77;95076.13;5086155;28;20245;-81
2021/05/24 06:56:41;;;;;;;1.67;1.20;;;14.30;70.30;;;14.78;52.03;95078.91;5026563;28;20227;-80
2021/05/24 06:59:07;;;;;;;1.05;1.05;;;14.50;70.00;;;14.88;52.03;95062.56;4984270;28;20232;-81
2021/05/24 07:01:35;;;;;;;2.25;0.80;;;14.60;69.90;;;14.98;52.02;95068.16;4911836;28;20208;-81
2021/05/24 07:04:03;;;;;;;1.30;0.90;;;14.70;69.60;;;15.09;51.48;95071.94;4859118;29;20734;-81
2021/05/24 07:06:30;;;;;;;1.23;1.00;;;14.80;69.40;;;15.15;51.27;95059.72;4717523;29;20281;-81
2021/05/24 07:09:08;;;;;;;1.10;1.00;;;14.90;69.20;;;15.25;50.92;95065.31;5134022;27;20373;-81
2021/05/24 07:11:35;;;;;;;1.20;1.10;;;15.00;69.60;;;15.28;50.36;95042.91;5107534;28;20197;-81
2021/05/24 07:14:02;;;;;;;0.95;0.95;;;15.10;68.60;;;15.35;50.82;95049.75;5065981;28;20742;-81
2021/05/24 07:16:28;;;;;;;1.30;1.20;;;15.20;68.80;;;15.40;50.52;95043.81;5065806;27;20205;-81
2021/05/24 07:18:55;;;;;;;0.98;0.90;;;15.20;68.40;;;15.43;50.44;95029.34;5093088;28;20321;-80
2021/05/24 07:21:22;;;;;;;1.30;1.20;;;15.40;68.50;;;15.46;50.10;95026.28;5054463;28;20237;-81
2021/05/24 07:23:49;;;;;;;1.25;1.00;;;15.40;68.20;;;15.54;50.34;95044.50;4941664;28;20748;-80
2021/05/24 07:26:16;;;;;;;1.30;1.13;;;15.40;68.30;;;15.58;50.53;95050.94;4898391;29;20208;-81
2021/05/24 07:30:20;;;;;;;1.38;1.27;;;15.50;68.40;;;15.73;50.50;95047.94;5149666;27;20642;-79
2021/05/24 07:32:46;;;;;;;0.90;0.90;;;15.60;68.30;;;15.82;50.23;95028.13;5106935;28;20221;-81
2021/05/24 07:35:14;;;;;;;1.40;1.20;;;15.70;68.10;;;15.88;49.67;95023.81;5109053;28;20458;-81
2021/05/24 07:37:41;;;;;;;1.60;1.10;;;15.70;67.80;;;15.94;49.72;95022.09;5075185;28;20582;-81
2021/05/24 07:40:11;;;;;;;2.13;1.55;;;15.80;67.80;;;16.00;49.18;95000.88;5049410;28;20207;-82
2021/05/24 07:42:38;;;;;;;1.30;1.20;;;15.90;67.60;;;16.06;49.30;94993.84;5014170;28;20235;-83
2021/05/24 07:45:07;;;;;;;1.52;1.25;;;15.90;67.50;;;16.14;48.61;95012.06;4908288;29;20219;-83
2021/05/24 07:47:35;;;;;;;2.67;1.20;;;16.00;67.30;;;16.21;49.04;95022.56;4607847;30;20250;-82
2021/05/24 07:51:02;;;;;;;1.73;1.20;;;16.10;67.50;;;16.32;48.88;95019.16;5133048;27;20567;-80
2021/05/24 07:53:28;;;;;;;1.40;1.30;;;16.20;67.50;;;16.42;49.65;95015.16;5067113;28;20684;-81
2021/05/24 07:55:55;;;;;;;1.98;1.30;;;16.20;67.60;;;16.46;49.07;95014.47;5089641;28;20201;-81
2021/05/24 07:58:22;;;;;;;3.40;1.20;;;16.30;67.50;;;16.59;48.98;95034.66;5093013;28;20317;-80
2021/05/24 08:00:49;;;;;;;1.27;1.20;;;16.30;67.50;;;16.67;49.03;95030.88;5005861;28;20209;-81
2021/05/24 08:03:16;;;;;;;1.27;1.17;;;16.40;67.40;;;16.70;48.38;95021.66;4927867;28;20240;-80
2021/05/24 08:05:43;;;;;;;1.58;1.20;;;16.50;67.30;;;16.82;47.88;95014.56;4923788;28;20219;-80
2021/05/24 08:08:09;;;;;;;1.83;1.52;;;16.60;67.00;;;16.90;48.26;95006.25;4831119;29;20246;-81
2021/05/24 08:10:47;;;;;;;2.25;1.40;;;16.70;66.90;;;16.96;47.75;95010.66;5141195;27;20849;-80
2021/05/24 08:13:14;;;;;;;2.33;1.20;;;16.80;66.70;;;17.02;48.39;95000.22;5118342;28;20224;-81
2021/05/24 08:15:42;;;;;;;1.95;1.15;;;16.80;66.80;;;17.05;47.97;94995.25;5087904;28;20577;-82
2021/05/24 08:18:09;;;;;;;2.75;1.63;;;16.90;66.70;;;17.09;47.73;94983.16;5067850;28;20236;-83
2021/05/24 08:20:37;;;;;;;7.40;2.35;;;16.90;66.60;;;17.12;47.67;94979.22;5024702;28;20201;-82
2021/05/24 08:23:07;;;;;;;4.05;2.28;;;17.00;66.50;;;17.20;48.21;94984.19;4962795;28;20697;-82
2021/05/24 08:25:34;;;;;;;3.47;2.50;;;17.00;66.50;;;17.34;48.39;94974.13;4854867;29;20216;-82
2021/05/24 08:28:01;;;;;;;3.15;2.28;;;17.10;66.80;;;17.43;47.78;94967.44;4796998;29;20341;-82
2021/05/24 08:31:44;;;;;;;2.08;1.67;;;17.20;66.60;;;17.60;47.91;94962.22;5148251;27;20536;-81
2021/05/24 08:34:11;;;;;;;5.15;2.83;;;17.30;66.90;;;17.72;48.11;94967.50;5090196;27;20229;-81
2021/05/24 08:36:39;;;;;;;4.65;2.75;;;17.50;66.90;;;17.82;47.99;94964.25;5092171;27;20209;-80
2021/05/24 08:39:07;;;;;;;1.92;1.52;;;17.50;66.80;;;17.96;47.53;94966.66;5077652;28;20279;-80
2021/05/24 08:41:38;;;;;;;1.40;1.30;;;17.60;66.90;;;18.03;46.92;94960.16;4973207;28;20209;-81
2021/05/24 08:44:06;;;;;;;1.63;1.30;;;17.70;66.40;;;18.18;47.28;94958.81;4898829;29;20244;-81
2021/05/24 08:46:33;;;;;;;4.03;1.40;;;17.70;66.20;;;18.29;47.11;94965.13;4830372;29;20216;-85
2021/05/24 08:49:00;;;;;;;1.90;1.58;;;17.90;66.50;;;18.36;47.23;94971.09;4670583;30;20795;-82
2021/05/24 08:53:11;;;;;;;2.90;2.10;;;18.00;66.40;;;18.31;46.58;94974.47;5137549;27;20583;-80
2021/05/24 08:55:38;;;;;;;1.92;1.75;;;18.10;65.70;;;18.28;46.67;94972.25;5098468;28;20199;-79
2021/05/24 08:58:08;;;;;;;1.52;1.40;;;18.10;65.70;;;18.23;46.95;94967.66;5101095;28;20256;-81
2021/05/24 09:00:35;;;;;;;1.58;1.23;;;18.10;65.70;;;18.22;47.69;94975.88;5078608;28;20203;-79
2021/05/24 09:03:02;;;;;;;1.35;1.25;;;18.10;65.70;;;18.19;47.20;94968.41;5039716;28;20228;-80
2021/05/24 09:05:32;;;;;;;1.38;1.27;;;18.10;65.60;;;18.19;47.12;94961.22;4991119;28;20211;-80
2021/05/24 09:08:04;;;;;;;1.70;1.38;;;18.10;65.90;;;18.27;47.20;94967.19;4919246;28;20756;-80
2021/05/24 09:10:35;;;;;;;1.48;1.30;;;18.10;65.90;;;18.33;46.66;94961.72;4794258;29;20208;-84
2021/05/24 09:13:14;;;;;;;1.10;0.98;;;18.10;65.70;;;18.43;46.73;94958.47;5142769;27;20850;-80
2021/05/24 09:15:45;;;;;;;4.30;1.20;;;18.10;65.60;;;18.54;46.92;94949.63;5059802;28;20207;-81
2021/05/24 09:18:13;;;;;;;1.20;1.10;;;18.30;65.80;;;18.67;46.74;94958.31;5027122;28;20775;-80
2021/05/24 09:20:41;;;;;;;1.50;1.17;;;18.40;66.30;;;18.86;46.96;94959.66;4997154;28;20255;-80
2021/05/24 09:23:29;;;;;;;1.02;1.02;;;18.40;66.30;;;19.06;46.83;94955.72;4960046;28;20472;-81
2021/05/24 09:26:11;;;;;;;2.10;1.48;;;18.60;65.80;;;19.23;46.30;94955.69;4836160;29;20221;-81
2021/05/24 09:28:50;;;;;;;1.02;1.02;;;18.70;65.70;;;19.41;45.79;94961.78;4721398;30;20371;-80
2021/05/24 09:31:34;;;;;;;1.13;1.10;;;18.80;65.70;;;19.56;45.86;94959.31;5150164;27;20630;-82
2021/05/24 09:34:01;;;;;;;1.33;1.10;;;19.00;65.50;;;19.69;45.33;94942.19;5109117;28;20231;-82
2021/05/24 09:36:29;;;;;;;1.35;1.25;;;19.20;65.30;;;19.81;45.04;94942.03;5084632;28;20885;-81
2021/05/24 09:39:10;;;;;;;1.13;1.10;;;19.30;65.10;;;19.97;45.15;94937.75;5040190;28;20213;-82
2021/05/24 09:41:47;;;;;;;1.00;1.00;;;19.40;65.00;;;20.14;45.80;94943.75;5007563;28;20201;-82
2021/05/24 09:44:30;;;;;;;3.03;2.10;;;19.60;65.40;;;20.27;45.15;94941.75;4944269;28;20245;-81
2021/05/24 09:46:57;;;;;;;4.78;2.90;;;19.70;64.60;;;20.32;44.38;94931.13;4855955;29;20279;-81
2021/05/24 09:52:01;;;;;;;1.55;1.35;;;19.80;64.60;;;20.50;43.96;94929.97;5148405;27;20643;-80
2021/05/24 09:54:38;;;;;;;1.27;1.10;;;20.00;64.20;;;20.61;44.66;94928.19;5108808;27;20220;-81
2021/05/24 09:57:11;;;;;;;1.02;1.00;;;20.10;64.70;;;20.79;44.84;94917.16;5076773;28;20239;-81
2021/05/24 09:59:38;;;;;;;0.93;0.93;;;20.20;64.30;;;20.96;43.84;94921.53;5048610;28;20233;-81
2021/05/24 10:02:08;;;;;;;1.10;1.00;;;20.30;64.00;;;21.02;43.00;94912.50;5004146;28;20207;-82
2021/05/24 10:04:36;;;;;;;1.10;1.00;;;20.50;63.90;;;21.11;42.76;94910.94;4883656;29;20322;-83
2021/05/24 10:07:06;;;;;;;1.25;1.15;;;20.60;63.40;;;21.13;42.23;94901.88;4791858;29;20231;-81
2021/05/24 10:09:56;;;;;;;1.60;1.13;;;20.70;63.20;;;21.10;42.48;94904.03;5150344;27;21136;-80
2021/05/24 10:12:23;;;;;;;3.60;1.30;;;20.80;63.10;;;21.09;42.03;94898.94;5100342;28;20199;-81
2021/05/24 10:14:50;;;;;;;1.33;1.00;;;20.80;62.60;;;21.08;42.58;94900.81;5072040;28;20211;-81
2021/05/24 10:17:16;;;;;;;1.50;1.02;;;20.80;62.80;;;21.09;42.30;94907.75;5085295;28;20216;-81
2021/05/24 10:19:43;;;;;;;1.45;1.13;;;20.90;63.60;;;21.11;42.63;94905.59;5054917;28;20264;-81
2021/05/24 10:22:10;;;;;;;1.92;1.00;;;20.90;63.00;;;21.10;42.72;94897.88;4944008;28;20218;-81
2021/05/24 10:24:37;;;;;;;1.73;1.00;;;20.80;62.70;;;21.12;42.47;94901.09;4859283;29;20227;-82
2021/05/24 10:27:04;;;;;;;1.08;1.00;;;20.90;62.60;;;21.05;42.34;94892.53;4675667;29;20250;-82
2021/05/24 10:29:42;;;;;;;1.00;0.95;;;20.90;62.40;;;21.03;42.43;94903.44;5149374;27;20372;-81
2021/05/24 10:32:10;;;;;;;1.50;1.25;;;20.90;62.80;;;21.01;42.51;94888.78;5127196;27;20285;-81
2021/05/24 10:34:39;;;;;;;1.75;1.10;;;20.80;62.30;;;21.00;42.12;94885.28;5088003;28;20703;-81
2021/05/24 10:37:08;;;;;;;2.05;0.90;;;20.80;62.50;;;21.09;42.47;94882.94;5070432;28;20244;-81
2021/05/24 10:40:02;;;;;;;1.95;1.05;;;20.80;62.70;;;21.07;41.90;94880.53;5010107;28;20236;-82
2021/05/24 10:42:40;;;;;;;1.13;0.93;;;20.90;62.60;;;21.04;42.33;94873.03;4833228;29;20251;-83
2021/05/24 10:45:20;;;;;;;1.00;0.95;;;20.80;61.70;;;21.05;41.99;94871.19;4753857;29;20222;-82
2021/05/24 10:48:20;;;;;;;0.90;0.90;;;20.90;62.20;;;21.14;42.75;94872.31;5141846;27;21160;-81
2021/05/24 10:51:10;;;;;;;2.33;0.98;;;20.90;62.30;;;21.26;42.72;94869.41;5066800;28;20276;-80
2021/05/24 10:53:43;;;;;;;0.93;0.88;;;20.90;62.70;;;21.34;42.07;94870.78;5044249;28;20769;-82
2021/05/24 10:56:21;;;;;;;1.00;1.00;;;21.00;62.20;;;21.40;41.77;94880.41;5016706;28;20218;-80
2021/05/24 10:58:47;;;;;;;0.98;0.82;;;21.10;62.20;;;21.43;41.51;94869.22;4976663;28;20585;-81
2021/05/24 11:01:14;;;;;;;1.33;1.23;;;21.10;62.10;;;21.52;41.96;94878.31;4963401;28;20231;-81
2021/05/24 11:04:11;;;;;;;0.90;0.90;;;21.20;62.40;;;21.59;42.15;94872.75;4793464;29;20246;-81
2021/05/24 11:09:14;;;;;;;3.22;1.00;;;21.20;62.30;;;21.88;41.20;94878.44;5131888;27;20655;-81
2021/05/24 11:11:41;;;;;;;0.80;0.80;;;21.40;62.10;;;22.04;41.89;94868.56;5107577;28;20197;-80
2021/05/24 11:14:10;;;;;;;1.50;0.93;;;21.50;62.60;;;22.21;41.56;94876.34;5105238;27;20233;-82
2021/05/24 11:16:38;;;;;;;1.67;1.00;;;21.70;62.10;;;22.28;40.34;94870.75;5069354;28;20626;-81
2021/05/24 11:19:13;;;;;;;1.10;1.00;;;21.70;61.30;;;22.33;40.08;94873.41;5075374;28;20234;-81